Time;durP1;ratioP1;P1;durP2;ratioP2;P2;SDS_P1;SDS_P2;PMS_P1;PMS_P2;Temp;Humidity;BMP_temperature;BMP_pressure;BME280_temperature;BME280_humidity;BME280_pressure;Samples;Min_cycle;Max_cycle;Signal;HPM_P1;HPM_P2
2022/05/20 00:01:08;;;;;;;3.38;1.75;;;;;;;6.17;88.53;96062.97;5133860;27;20044;-70
2022/05/20 00:03:37;;;;;;;2.17;1.52;;;;;;;6.10;87.51;96068.06;5036158;27;20207;-70
2022/05/20 00:06:04;;;;;;;1.80;0.93;;;;;;;5.95;86.89;96077.50;5051040;27;20055;-70
2022/05/20 00:08:31;;;;;;;2.75;1.63;;;;;;;5.74;87.15;96073.75;5039697;27;20045;-70
2022/05/20 00:10:58;;;;;;;2.78;1.65;;;;;;;5.67;88.18;96066.81;5041431;27;20069;-70
2022/05/20 00:13:27;;;;;;;3.13;1.40;;;;;;;5.51;88.82;96058.19;5048294;27;20080;-70
2022/05/20 00:15:55;;;;;;;3.33;1.75;;;;;;;5.58;89.88;96078.16;5042514;27;20082;-70
2022/05/20 00:18:22;;;;;;;2.65;1.75;;;;;;;5.51;90.46;96070.28;5038439;27;20508;-70
2022/05/20 00:20:51;;;;;;;2.90;1.55;;;;;;;5.48;91.44;96066.25;5042315;27;20040;-70
2022/05/20 00:23:18;;;;;;;2.60;1.67;;;;;;;5.43;92.44;96076.28;5040327;27;20156;-70
2022/05/20 00:25:48;;;;;;;3.20;1.60;;;;;;;5.34;92.74;96066.97;5038790;27;20056;-70
2022/05/20 00:28:25;;;;;;;3.10;1.88;;;;;;;5.30;93.11;96061.31;5039713;27;20098;-70
2022/05/20 00:31:06;;;;;;;2.13;1.55;;;;;;;5.43;93.79;96078.88;5038859;27;20610;-70
2022/05/20 00:33:35;;;;;;;2.95;2.13;;;;;;;5.48;93.68;96079.19;5041903;27;20121;-70
2022/05/20 00:36:03;;;;;;;3.40;2.20;;;;;;;5.41;94.12;96057.56;5041494;27;20051;-70
2022/05/20 00:38:30;;;;;;;4.68;2.10;;;;;;;5.59;94.24;96079.78;5038521;27;20443;-69
2022/05/20 00:40:58;;;;;;;3.90;2.47;;;;;;;5.55;94.58;96072.38;5042495;27;20515;-69
2022/05/20 00:43:43;;;;;;;5.65;2.08;;;;;;;5.53;95.15;96066.56;5041126;27;20097;-69
2022/05/20 00:46:14;;;;;;;2.72;2.20;;;;;;;5.66;95.67;96085.91;5148381;27;21621;-70
2022/05/20 00:48:42;;;;;;;4.30;2.17;;;;;;;5.63;96.50;96086.22;5042084;27;20028;-70
2022/05/20 00:51:22;;;;;;;4.13;2.50;;;;;;;5.63;97.76;96075.88;5049768;27;20059;-70
2022/05/20 00:53:57;;;;;;;6.03;3.15;;;;;;;5.62;98.46;96079.44;5041430;27;20534;-69
2022/05/20 00:56:33;;;;;;;3.40;2.33;;;;;;;5.54;99.45;96073.31;5041631;27;20123;-70
2022/05/20 00:59:01;;;;;;;4.53;2.70;;;;;;;5.52;100.00;96075.28;5045553;27;20056;-70
2022/05/20 01:01:28;;;;;;;4.80;3.03;;;;;;;5.52;100.00;96075.28;5086932;27;20026;-69
2022/05/20 01:03:56;;;;;;;5.35;3.13;;;;;;;5.58;100.00;96081.53;5073279;27;20542;-70
2022/05/20 01:06:23;;;;;;;4.60;2.75;;;;;;;5.59;100.00;96079.78;5083992;27;20574;-70
2022/05/20 01:08:50;;;;;;;5.53;3.33;;;;;;;5.45;100.00;96058.03;5077982;27;20062;-69
2022/05/20 01:11:17;;;;;;;4.70;3.20;;;;;;;5.50;100.00;96077.22;5079959;27;20048;-69
2022/05/20 01:13:47;;;;;;;4.07;2.53;;;;;;;5.54;100.00;96082.88;5058394;27;20052;-69
2022/05/20 01:16:15;;;;;;;4.68;2.90;;;;;;;5.59;100.00;96074.63;5065532;27;20041;-70
2022/05/20 01:18:46;;;;;;;6.15;2.88;;;;;;;5.43;100.00;96039.31;5067128;27;20053;-70
2022/05/20 01:21:14;;;;;;;11.82;3.92;;;;;;;5.78;100.00;96084.53;5083403;27;20046;-70
2022/05/20 01:23:41;;;;;;;7.00;4.25;;;;;;;5.71;100.00;96078.44;5074487;27;20052;-70
2022/05/20 01:26:08;;;;;;;8.70;4.53;;;;;;;5.73;100.00;96079.06;5074797;27;20053;-69
2022/05/20 01:28:35;;;;;;;12.27;4.30;;;;;;;5.80;100.00;96092.94;5037031;27;20127;-70
2022/05/20 01:31:05;;;;;;;8.65;3.95;;;;;;;5.81;100.00;96088.56;5040666;27;20515;-69
2022/05/20 01:33:45;;;;;;;8.10;3.75;;;;;;;5.78;100.00;96069.03;5037865;27;20056;-69
2022/05/20 01:36:16;;;;;;;6.72;3.67;;;;;;;5.77;100.00;96082.91;5042101;27;20051;-70
2022/05/20 01:38:43;;;;;;;8.55;4.45;;;;;;;5.83;100.00;96087.41;5038881;27;20063;-70
2022/05/20 01:41:18;;;;;;;4.28;2.72;;;;;;;5.77;100.00;96082.91;5041611;27;20053;-69
2022/05/20 01:43:55;;;;;;;5.82;3.35;;;;;;;5.66;100.00;96085.91;5040897;27;20041;-70
2022/05/20 01:46:55;;;;;;;5.25;3.20;;;;;;;5.63;99.49;96091.41;5049769;27;20135;-70
2022/05/20 01:49:41;;;;;;;9.07;4.13;;;;;;;5.41;98.88;96080.03;5062627;27;20990;-70
2022/05/20 01:52:36;;;;;;;4.65;2.65;;;;;;;5.29;98.06;96084.75;5036660;27;20106;-70
2022/05/20 01:55:06;;;;;;;;;;;;;;;5.08;98.33;96085.31;5062369;27;20043;-70
2022/05/20 01:57:40;;;;;;;6.05;2.40;;;;;;;4.81;98.86;96071.78;5061102;27;19931;-70
2022/05/20 02:00:11;;;;;;;3.20;2.20;;;;;;;4.71;99.69;96086.66;5036348;27;20047;-69
2022/05/20 02:03:01;;;;;;;8.27;2.28;;;;;;;4.62;100.00;96083.25;5054100;27;20436;-70
2022/05/20 02:05:33;;;;;;;5.18;2.58;;;;;;;4.57;100.00;96080.34;5042547;27;20046;-70
2022/05/20 02:08:20;;;;;;;3.10;2.20;;;;;;;4.53;100.00;96079.06;5084281;27;20072;-70
2022/05/20 02:10:54;;;;;;;3.30;2.55;;;;;;;4.56;100.00;96083.94;5052593;27;20045;-69
2022/05/20 02:13:23;;;;;;;8.50;2.33;;;;;;;4.56;100.00;96089.09;5034394;27;20033;-70
2022/05/20 02:15:58;;;;;;;3.55;2.00;;;;;;;4.43;100.00;96088.75;5038601;27;20056;-69
2022/05/20 02:18:30;;;;;;;2.72;2.08;;;;;;;4.48;100.00;96086.50;5060858;27;20033;-71
2022/05/20 02:21:03;;;;;;;3.15;1.95;;;;;;;4.53;100.00;96084.25;5047902;27;20129;-69
2022/05/20 02:23:39;;;;;;;3.45;2.35;;;;;;;4.47;100.00;96079.75;5059003;27;20049;-69
2022/05/20 02:26:12;;;;;;;3.88;2.03;;;;;;;4.52;100.00;96082.63;5042703;27;20053;-69
2022/05/20 02:28:43;;;;;;;5.30;2.28;;;;;;;4.45;100.00;96081.66;5035779;27;20044;-69
2022/05/20 02:31:24;;;;;;;4.95;2.65;;;;;;;4.46;100.00;96088.44;5055687;27;20045;-70
2022/05/20 02:33:52;;;;;;;4.60;2.33;;;;;;;4.47;100.00;96090.06;5070719;27;20542;-69
2022/05/20 02:36:31;;;;;;;6.57;2.80;;;;;;;4.49;100.00;96082.97;5072823;27;20712;-69
2022/05/20 02:38:59;;;;;;;4.22;2.53;;;;;;;4.45;100.00;96081.66;5091987;27;20044;-69
2022/05/20 02:41:26;;;;;;;2.97;2.15;;;;;;;4.33;100.00;96063.94;5068947;27;20490;-69
2022/05/20 02:43:53;;;;;;;2.95;1.98;;;;;;;4.38;100.00;96072.00;5078924;27;20118;-70
2022/05/20 02:46:20;;;;;;;3.50;2.33;;;;;;;4.46;100.00;96084.06;5034928;27;20101;-69
2022/05/20 02:48:47;;;;;;;5.57;2.33;;;;;;;4.49;100.00;96082.97;5058772;27;20027;-70
2022/05/20 02:51:16;;;;;;;4.32;2.15;;;;;;;4.35;100.00;96061.97;5073772;27;20044;-69
2022/05/20 02:53:47;;;;;;;3.20;2.30;;;;;;;4.49;100.00;96078.59;5070462;27;20048;-70
2022/05/20 02:56:14;;;;;;;4.10;2.63;;;;;;;4.50;100.00;96087.13;5072206;27;20047;-69
2022/05/20 03:04:12;;;;;;;6.78;2.80;;;;;;;4.34;100.00;96075.88;5036759;27;20145;-70
2022/05/20 03:06:50;;;;;;;4.18;2.50;;;;;;;4.20;100.00;96055.88;5036121;27;20450;-69
2022/05/20 03:09:20;;;;;;;2.47;1.90;;;;;;;4.24;100.00;96080.38;5038518;27;20049;-69
2022/05/20 03:11:47;;;;;;;3.78;2.00;;;;;;;4.18;100.00;96081.03;5034348;27;20044;-69
2022/05/20 03:14:17;;;;;;;6.43;2.80;;;;;;;4.22;100.00;96083.09;5050240;27;20045;-69
2022/05/20 03:16:44;;;;;;;7.60;3.60;;;;;;;4.24;100.00;96079.56;5035457;27;20056;-69
2022/05/20 03:19:13;;;;;;;4.03;2.50;;;;;;;4.24;100.00;96080.38;5038497;27;20316;-72
2022/05/20 03:21:42;;;;;;;3.45;2.22;;;;;;;4.25;100.00;96081.16;5037485;27;20049;-71
2022/05/20 03:24:10;;;;;;;3.63;2.40;;;;;;;4.30;100.00;96087.44;5040334;27;20043;-71
2022/05/20 03:26:37;;;;;;;3.70;2.30;;;;;;;4.16;100.00;96068.28;5038757;27;20056;-71
2022/05/20 03:29:05;;;;;;;6.05;2.92;;;;;;;4.32;100.00;96088.13;5038221;27;20049;-70
2022/05/20 03:31:34;;;;;;;11.48;2.50;;;;;;;4.37;100.00;96096.16;5032831;27;20037;-71
2022/05/20 03:34:05;;;;;;;3.58;1.98;;;;;;;4.36;100.00;96084.25;5039895;27;20570;-71
2022/05/20 03:36:46;;;;;;;6.47;2.35;;;;;;;4.44;100.00;96090.38;5024323;27;20041;-71
2022/05/20 03:39:16;;;;;;;5.30;2.72;;;;;;;4.50;100.00;96089.72;5033284;27;20044;-71
2022/05/20 03:41:44;;;;;;;4.32;2.67;;;;;;;4.53;100.00;96084.25;5039291;27;20045;-71
2022/05/20 03:44:12;;;;;;;7.70;2.63;;;;;;;4.62;100.00;96088.44;5039550;27;20044;-71
2022/05/20 03:46:45;;;;;;;7.45;2.47;;;;;;;4.76;100.00;96100.66;5038177;27;20652;-71
2022/05/20 03:49:13;;;;;;;4.05;2.55;;;;;;;4.93;100.00;96110.97;5040865;27;20422;-71
2022/05/20 03:51:41;;;;;;;2.83;2.22;;;;;;;5.09;100.00;96108.34;5037626;27;20043;-71
2022/05/20 03:54:08;;;;;;;4.88;2.75;;;;;;;5.20;100.00;96096.06;5041908;27;20041;-71
2022/05/20 03:56:35;;;;;;;4.80;2.25;;;;;;;5.47;100.00;96118.91;5039044;27;20086;-73
2022/05/20 03:59:03;;;;;;;6.53;2.47;;;;;;;5.58;100.00;96104.81;5032729;27;20060;-72
2022/05/20 04:04:18;;;;;;;9.32;3.42;;;;;;;5.87;100.00;96088.69;5043038;27;20522;-72
2022/05/20 04:06:45;;;;;;;2.47;1.95;;;;;;;6.19;100.00;96117.94;5049172;27;20045;-72
2022/05/20 04:09:12;;;;;;;5.53;3.15;;;;;;;6.15;100.00;96082.25;5061494;27;20057;-72
2022/05/20 04:11:39;;;;;;;5.43;2.83;;;;;;;6.54;100.00;96117.56;5047601;27;20354;-72
2022/05/20 04:14:06;;;;;;;8.00;2.90;;;;;;;6.39;100.00;96071.72;5045331;27;20045;-72
2022/05/20 04:16:34;;;;;;;14.55;3.80;;;;;;;6.84;100.00;96126.19;5027934;27;20514;-72
2022/05/20 04:19:00;;;;;;;6.32;3.42;;;;;;;6.67;100.00;96090.09;5054347;27;20498;-72
2022/05/20 04:21:28;;;;;;;3.30;1.90;;;;;;;6.57;100.00;96063.66;5042678;27;20101;-72
2022/05/20 04:24:00;;;;;;;3.90;2.47;;;;;;;6.84;98.39;96095.13;5053574;27;20068;-72
2022/05/20 04:26:27;;;;;;;15.82;3.25;;;;;;;6.95;96.97;96133.56;5038948;28;20141;-72
2022/05/20 04:28:54;;;;;;;4.93;2.20;;;;;;;6.64;97.11;96105.97;5025893;28;20046;-77
2022/05/20 04:31:21;;;;;;;3.60;2.35;;;;;;;6.58;98.28;96111.84;5028685;28;20053;-77
2022/05/20 04:33:49;;;;;;;7.55;2.70;;;;;;;6.72;98.39;96127.59;4999301;28;20781;-68
2022/05/20 04:36:16;;;;;;;5.43;2.65;;;;;;;6.73;98.41;96129.22;4999721;27;20041;-67
2022/05/20 04:38:42;;;;;;;4.80;2.53;;;;;;;6.76;99.01;96139.22;5015192;28;20540;-66
2022/05/20 04:46:57;;;;;;;4.78;3.17;;;;;;;7.06;98.53;96140.91;5013107;28;20049;-67
2022/05/20 04:49:26;;;;;;;4.70;2.88;;;;;;;7.16;97.91;96127.66;5015993;28;20122;-67
2022/05/20 04:51:53;;;;;;;8.00;4.90;;;;;;;7.43;96.32;96147.00;5029507;28;20077;-66
2022/05/20 04:57:07;;;;;;;6.28;3.95;;;;;;;7.75;95.32;96134.66;5012770;28;20428;-66
2022/05/20 04:59:39;;;;;;;4.65;2.72;;;;;;;7.99;94.75;96148.28;5011795;28;20046;-66
2022/05/20 05:02:05;;;;;;;4.68;3.30;;;;;;;8.15;94.08;96150.66;5032095;28;20103;-66
2022/05/20 05:04:33;;;;;;;3.90;2.65;;;;;;;8.27;93.50;96148.41;5011494;28;20056;-64
2022/05/20 05:07:00;;;;;;;4.25;3.13;;;;;;;8.42;92.33;96140.59;5014429;28;20054;-66
2022/05/20 05:09:26;;;;;;;12.43;3.33;;;;;;;8.58;90.35;96153.34;5041632;28;20042;-66
2022/05/20 05:11:53;;;;;;;5.93;3.10;;;;;;;8.73;89.72;96153.28;5038233;28;20040;-67
2022/05/20 05:14:20;;;;;;;7.97;3.65;;;;;;;8.88;88.46;96155.81;5033232;28;20052;-66
2022/05/20 05:16:47;;;;;;;4.50;2.83;;;;;;;9.04;87.35;96153.91;5020617;28;20046;-67
2022/05/20 05:19:14;;;;;;;6.78;3.58;;;;;;;9.23;86.94;96147.25;5043037;28;20521;-66
2022/05/20 05:21:41;;;;;;;6.70;3.85;;;;;;;9.42;86.81;96150.97;5036108;28;20052;-67
2022/05/20 05:24:08;;;;;;;4.65;2.85;;;;;;;9.50;86.46;96156.03;5030725;28;20046;-66
2022/05/20 05:26:35;;;;;;;5.18;3.40;;;;;;;9.61;87.13;96155.47;5054596;27;20038;-66
2022/05/20 05:29:04;;;;;;;6.47;3.20;;;;;;;9.77;86.78;96149.97;5080163;27;20300;-66
2022/05/20 05:31:31;;;;;;;7.28;3.95;;;;;;;9.86;84.18;96144.59;5067047;27;20318;-66
2022/05/20 05:33:58;;;;;;;5.53;3.38;;;;;;;9.99;84.52;96152.47;5036430;27;20041;-66
2022/05/20 05:36:25;;;;;;;6.78;2.95;;;;;;;9.88;81.70;96111.38;5072657;27;20041;-67
2022/05/20 05:38:52;;;;;;;6.32;3.13;;;;;;;10.25;80.89;96151.75;5051082;27;20051;-67
2022/05/20 05:41:20;;;;;;;6.88;3.78;;;;;;;10.40;81.36;96149.00;5080120;27;20540;-66
2022/05/20 05:43:47;;;;;;;8.60;3.78;;;;;;;10.37;81.68;96149.44;5036786;27;20545;-66
2022/05/20 05:46:14;;;;;;;5.95;3.58;;;;;;;10.39;78.81;96162.22;5083161;27;20054;-66
2022/05/20 05:48:41;;;;;;;4.72;3.05;;;;;;;10.55;78.78;96155.84;5039336;27;20467;-66
2022/05/20 05:51:08;;;;;;;13.32;2.90;;;;;;;10.71;77.50;96160.69;5062050;27;20045;-66
2022/05/20 05:53:35;;;;;;;6.80;4.03;;;;;;;10.82;79.96;96152.31;5064888;27;21436;-66
2022/05/20 05:56:05;;;;;;;7.72;3.78;;;;;;;10.85;78.87;96154.47;5083659;27;20068;-66
2022/05/20 05:58:33;;;;;;;5.75;3.05;;;;;;;10.97;80.96;96148.69;5075141;27;20041;-66
2022/05/20 06:01:05;;;;;;;7.20;4.13;;;;;;;11.21;80.63;96153.28;5063880;27;20041;-66
2022/05/20 06:03:33;;;;;;;5.05;3.10;;;;;;;11.32;79.82;96143.25;5041096;27;20049;-68
2022/05/20 06:06:00;;;;;;;4.95;3.72;;;;;;;11.44;79.19;96150.25;5070323;27;20057;-65
2022/05/20 06:08:27;;;;;;;9.80;3.45;;;;;;;11.58;78.82;96145.81;5068436;27;20235;-65
2022/05/20 06:10:59;;;;;;;10.27;4.30;;;;;;;11.76;78.99;96144.34;5042743;27;20067;-65
2022/05/20 06:13:29;;;;;;;5.22;3.60;;;;;;;11.87;75.67;96143.72;5065131;27;20466;-65
2022/05/20 06:15:57;;;;;;;28.02;3.90;;;;;;;12.02;76.12;96141.66;5084647;27;20048;-65
2022/05/20 06:18:25;;;;;;;6.88;4.03;;;;;;;12.23;75.49;96142.38;5074612;27;20041;-67
2022/05/20 06:20:52;;;;;;;7.40;3.85;;;;;;;12.36;73.29;96147.53;5053789;27;20084;-65
2022/05/20 06:23:19;;;;;;;9.75;3.72;;;;;;;12.45;73.10;96144.69;5084736;27;20547;-65
2022/05/20 06:25:47;;;;;;;7.90;3.67;;;;;;;12.47;72.78;96142.66;5068935;27;20105;-68
2022/05/20 06:28:34;;;;;;;5.97;3.38;;;;;;;12.70;72.73;96142.91;5074940;27;20041;-67
2022/05/20 06:31:05;;;;;;;13.10;4.28;;;;;;;12.78;72.11;96145.28;5033559;27;20594;-67
2022/05/20 06:33:33;;;;;;;9.25;3.50;;;;;;;12.84;70.42;96148.03;5066709;27;20061;-67
2022/05/20 06:41:30;;;;;;;4.97;3.08;;;;;;;13.15;68.41;96134.91;5049851;27;20052;-66
2022/05/20 06:43:57;;;;;;;4.35;3.20;;;;;;;13.17;67.57;96145.16;5041735;27;20286;-67
2022/05/20 06:46:24;;;;;;;7.20;2.65;;;;;;;13.23;67.07;96136.44;5040611;27;20098;-67
2022/05/20 06:48:59;;;;;;;7.65;3.05;;;;;;;13.35;66.88;96140.00;5039617;27;20509;-67
2022/05/20 06:51:35;;;;;;;4.63;3.00;;;;;;;13.56;66.51;96124.91;5041167;27;20057;-67
2022/05/20 06:54:05;;;;;;;5.68;3.90;;;;;;;13.79;67.28;96139.13;5039991;27;20056;-67
2022/05/20 06:56:33;;;;;;;7.57;3.30;;;;;;;13.90;64.75;96131.38;5035771;27;20067;-67
2022/05/20 06:59:01;;;;;;;6.45;3.40;;;;;;;14.04;65.55;96139.06;5040873;27;20507;-72
2022/05/20 07:01:29;;;;;;;6.82;3.22;;;;;;;14.01;64.82;96136.88;5037760;27;20040;-71
2022/05/20 07:03:57;;;;;;;5.75;3.80;;;;;;;14.01;65.78;96136.88;5042211;27;20334;-72
2022/05/20 07:06:25;;;;;;;6.18;3.65;;;;;;;14.33;66.68;96135.66;5039489;27;20037;-73
2022/05/20 07:08:52;;;;;;;8.18;4.00;;;;;;;14.17;64.75;96115.31;5038551;27;20060;-73
2022/05/20 07:11:22;;;;;;;6.95;3.22;;;;;;;14.47;62.94;96131.03;5036763;27;20044;-73
2022/05/20 07:13:52;;;;;;;6.15;3.05;;;;;;;14.52;62.77;96132.97;5036311;27;20053;-73
2022/05/20 07:16:19;;;;;;;4.90;3.15;;;;;;;14.78;62.22;96131.00;5040101;27;20049;-73
2022/05/20 07:18:46;;;;;;;3.70;2.67;;;;;;;15.00;61.93;96129.47;5036264;27;20127;-72
2022/05/20 07:21:14;;;;;;;5.85;2.88;;;;;;;15.23;60.67;96120.00;5035745;27;20041;-74
2022/05/20 07:23:41;;;;;;;5.65;3.17;;;;;;;15.41;59.67;96125.16;5022108;27;20070;-73
2022/05/20 07:26:08;;;;;;;5.40;2.88;;;;;;;15.66;57.26;96124.06;5040495;27;20101;-72
2022/05/20 07:28:35;;;;;;;7.35;2.55;;;;;;;15.55;56.87;96119.66;5033787;27;20109;-72
2022/05/20 07:31:03;;;;;;;6.25;2.55;;;;;;;15.72;56.33;96120.53;5036017;27;20056;-72
2022/05/20 07:33:30;;;;;;;4.82;2.90;;;;;;;15.88;55.65;96120.84;5050929;27;20151;-72
2022/05/20 07:35:57;;;;;;;7.43;2.60;;;;;;;16.04;52.87;96122.75;5057872;27;20049;-72
2022/05/20 07:38:24;;;;;;;3.75;2.38;;;;;;;15.98;52.33;96123.69;5043010;27;20056;-72
2022/05/20 07:40:55;;;;;;;6.18;2.38;;;;;;;16.08;53.08;96118.66;5049315;27;20054;-72
2022/05/20 07:43:22;;;;;;;6.78;2.60;;;;;;;16.14;53.21;96091.41;5065073;27;20049;-72
2022/05/20 07:45:51;;;;;;;4.75;2.00;;;;;;;16.36;51.62;96119.66;5053852;27;20041;-72
2022/05/20 07:48:19;;;;;;;4.22;2.80;;;;;;;16.43;52.61;96120.31;5034286;27;20041;-72
2022/05/20 07:50:55;;;;;;;3.13;2.10;;;;;;;16.44;51.58;96122.72;5053819;27;20068;-72
2022/05/20 07:53:33;;;;;;;13.80;2.15;;;;;;;16.55;50.88;96123.69;5041243;27;20049;-72
2022/05/20 07:56:13;;;;;;;4.03;2.45;;;;;;;16.59;50.49;96103.78;5038575;27;20056;-73
2022/05/20 07:58:50;;;;;;;3.13;1.63;;;;;;;16.86;49.93;96103.19;5130451;27;20525;-72
2022/05/20 08:01:24;;;;;;;6.53;2.13;;;;;;;17.03;46.84;96102.38;5034052;27;20070;-73
2022/05/20 08:06:42;;;;;;;6.00;2.00;;;;;;;17.12;45.12;96074.63;5058270;27;20033;-73
2022/05/20 08:09:09;;;;;;;3.05;1.88;;;;;;;17.33;44.34;96097.56;5038107;27;20051;-74
2022/05/20 08:11:36;;;;;;;5.80;1.83;;;;;;;17.52;44.67;96105.16;5036643;27;20534;-72
2022/05/20 08:14:03;;;;;;;5.63;1.70;;;;;;;17.84;44.69;96107.94;5136509;27;20110;-73
2022/05/20 08:16:30;;;;;;;3.95;2.17;;;;;;;17.99;42.90;96099.47;5049324;27;20049;-73
2022/05/20 08:18:57;;;;;;;4.15;2.35;;;;;;;18.21;43.52;96107.34;5075074;27;20057;-73
2022/05/20 08:21:24;;;;;;;4.97;2.40;;;;;;;18.39;43.08;96095.66;5063385;27;20534;-73
2022/05/20 08:23:51;;;;;;;3.35;2.50;;;;;;;18.61;44.08;96073.69;5060535;27;20057;-74
2022/05/20 08:26:18;;;;;;;5.80;1.98;;;;;;;18.94;41.60;96088.47;5038471;27;20052;-72
2022/05/20 08:28:48;;;;;;;5.60;2.75;;;;;;;19.07;43.14;96098.63;5063953;27;20084;-73
2022/05/20 08:31:15;;;;;;;4.38;2.20;;;;;;;19.04;41.83;96088.56;5062380;27;20039;-73
2022/05/20 08:33:43;;;;;;;4.63;2.30;;;;;;;19.15;42.03;96089.44;5036615;27;20064;-73
2022/05/20 08:36:13;;;;;;;2.20;1.40;;;;;;;19.42;41.39;96093.81;5035262;27;21255;-73
2022/05/20 08:38:40;;;;;;;4.53;1.67;;;;;;;19.47;40.88;96083.28;5068090;27;20611;-73
2022/05/20 08:41:17;;;;;;;3.90;1.35;;;;;;;19.57;39.25;96088.63;5044496;27;20420;-73
2022/05/20 08:43:45;;;;;;;2.60;1.48;;;;;;;19.59;38.99;96078.59;5034928;27;20048;-72
2022/05/20 08:46:14;;;;;;;2.88;2.05;;;;;;;19.81;35.50;96085.59;5068181;27;20041;-73
2022/05/20 08:48:43;;;;;;;1.60;1.10;;;;;;;19.89;35.81;96077.13;5040029;27;20071;-73
2022/05/20 08:51:10;;;;;;;4.85;1.30;;;;;;;19.98;36.48;96086.16;5052368;27;20123;-74
2022/05/20 08:53:48;;;;;;;6.28;1.33;;;;;;;20.22;37.44;96077.75;5074875;27;20138;-74
2022/05/20 08:56:19;;;;;;;5.53;1.33;;;;;;;20.46;35.96;96074.63;5043030;27;20053;-72
2022/05/20 08:58:59;;;;;;;2.63;1.17;;;;;;;20.52;36.44;96070.94;5071130;27;20056;-73
2022/05/20 09:01:29;;;;;;;3.30;1.02;;;;;;;20.78;32.31;96072.56;5072098;27;20041;-73
2022/05/20 09:03:56;;;;;;;5.10;1.10;;;;;;;20.83;32.17;96047.91;5069727;27;20055;-74
2022/05/20 09:06:24;;;;;;;2.30;0.77;;;;;;;20.59;32.96;96035.19;5040689;27;20044;-74
2022/05/20 09:09:11;;;;;;;0.93;0.70;;;;;;;20.94;30.79;96049.53;5058141;27;20052;-77
2022/05/20 09:11:41;;;;;;;3.00;0.98;;;;;;;21.01;29.71;96041.28;5070161;27;20052;-73
2022/05/20 09:17:09;;;;;;;3.15;0.80;;;;;;;21.53;28.72;96050.72;5041270;27;20048;-74
2022/05/20 09:19:37;;;;;;;3.15;0.70;;;;;;;21.41;28.79;96044.91;5064533;27;20068;-74
2022/05/20 09:22:14;;;;;;;6.93;1.08;;;;;;;21.38;29.88;96032.19;5069614;27;20035;-74
2022/05/20 09:24:45;;;;;;;3.40;1.30;;;;;;;21.73;30.20;96022.53;5049935;27;20064;-74
2022/05/20 09:27:18;;;;;;;5.60;1.15;;;;;;;21.82;27.64;96020.91;5035754;27;20059;-74
2022/05/20 09:30:10;;;;;;;3.15;0.75;;;;;;;22.05;27.48;96034.56;5081374;27;20045;-73
2022/05/20 09:32:44;;;;;;;2.13;0.95;;;;;;;22.04;28.01;96027.66;5120887;27;20048;-73
2022/05/20 09:35:19;;;;;;;3.13;1.00;;;;;;;22.29;26.46;96032.88;5056086;27;20056;-73
2022/05/20 09:37:53;;;;;;;2.22;1.35;;;;;;;22.15;26.99;96023.91;5050391;27;20269;-73
2022/05/20 09:40:31;;;;;;;1.92;0.63;;;;;;;22.49;25.94;96025.81;5045580;27;20041;-74
2022/05/20 09:43:37;;;;;;;4.13;1.55;;;;;;;22.71;25.30;96012.88;5072737;27;20482;-73
2022/05/20 09:46:05;;;;;;;2.63;0.90;;;;;;;22.69;25.13;95995.66;5074661;27;20041;-72
2022/05/20 09:48:43;;;;;;;2.97;0.52;;;;;;;22.45;24.52;96006.19;5037963;27;20411;-72
2022/05/20 09:51:32;;;;;;;1.65;0.80;;;;;;;22.48;25.27;96010.97;5068805;27;20037;-73
2022/05/20 09:54:32;;;;;;;1.67;0.73;;;;;;;22.92;24.74;96007.38;5051792;27;20595;-74
2022/05/20 09:57:10;;;;;;;1.52;0.73;;;;;;;23.15;24.04;96010.38;5075770;27;20548;-72
2022/05/20 10:00:04;;;;;;;0.95;0.57;;;;;;;23.17;23.42;95994.94;5064424;27;20077;-74
2022/05/20 10:02:43;;;;;;;2.40;1.25;;;;;;;23.02;22.48;95983.38;5081647;27;20050;-73
2022/05/20 10:05:21;;;;;;;1.75;0.80;;;;;;;22.95;23.46;95977.59;5062918;27;20347;-74
2022/05/20 10:08:07;;;;;;;3.05;1.08;;;;;;;23.08;21.87;95984.94;5135441;27;20060;-72
2022/05/20 10:10:39;;;;;;;1.83;0.55;;;;;;;23.57;22.08;95979.56;5036199;27;20136;-74
2022/05/20 10:13:14;;;;;;;2.15;0.80;;;;;;;23.85;21.16;95981.34;5073205;27;20483;-74
2022/05/20 10:15:47;;;;;;;0.90;0.28;;;;;;;23.38;17.91;95984.88;5059291;27;20050;-74
2022/05/20 10:18:34;;;;;;;2.70;0.63;;;;;;;23.82;18.35;95978.47;5056235;27;20565;-74
2022/05/20 10:21:08;;;;;;;0.70;0.38;;;;;;;24.50;19.43;95977.19;5048843;27;20052;-73
2022/05/20 10:23:34;;;;;;;1.27;0.52;;;;;;;24.76;17.06;95980.25;5043390;27;20044;-72
2022/05/20 10:26:21;;;;;;;2.05;0.50;;;;;;;24.97;18.64;95970.03;5060204;27;20523;-74
2022/05/20 10:34:36;;;;;;;5.05;0.70;;;;;;;24.31;18.98;95952.47;5039697;27;20043;-74
2022/05/20 10:37:25;;;;;;;1.23;0.47;;;;;;;24.43;20.09;95956.28;5067360;27;20042;-72
2022/05/20 10:40:07;;;;;;;1.67;0.65;;;;;;;25.07;18.92;95957.59;5059093;27;21392;-72
2022/05/20 10:43:09;;;;;;;0.60;0.40;;;;;;;24.95;17.31;95960.72;5059311;27;20451;-72
2022/05/20 10:48:58;;;;;;;1.33;0.40;;;;;;;24.79;17.78;95941.56;5053647;27;20096;-72
2022/05/20 10:51:52;;;;;;;2.28;0.63;;;;;;;25.00;18.11;95942.75;5039800;27;20080;-72
2022/05/20 10:54:38;;;;;;;3.93;0.30;;;;;;;25.54;18.79;95934.25;5074591;27;20129;-72
2022/05/20 10:57:46;;;;;;;1.98;0.50;;;;;;;25.38;17.85;95934.56;5065319;27;20053;-72
2022/05/20 11:00:19;;;;;;;3.70;0.47;;;;;;;25.05;18.05;95933.88;5069519;27;20454;-72
2022/05/20 11:03:21;;;;;;;2.58;0.52;;;;;;;24.78;18.35;95934.66;5059404;27;20131;-72
2022/05/20 11:06:41;;;;;;;1.08;0.68;;;;;;;24.79;16.58;95937.03;5037403;27;20128;-72
2022/05/20 11:09:37;;;;;;;3.20;0.57;;;;;;;25.62;15.49;95925.53;5034852;27;20051;-72
2022/05/20 11:12:06;;;;;;;0.65;0.25;;;;;;;26.05;16.37;95925.13;5071180;27;20484;-73
2022/05/20 11:15:03;;;;;;;0.98;0.38;;;;;;;26.40;14.35;95933.38;5025365;27;20519;-72
2022/05/20 11:17:54;;;;;;;0.60;0.30;;;;;;;25.90;14.61;95930.81;5034977;27;20065;-72
2022/05/20 11:20:30;;;;;;;1.27;0.40;;;;;;;26.72;15.66;95912.03;5044379;27;20423;-73
2022/05/20 11:23:22;;;;;;;2.47;0.60;;;;;;;27.54;15.68;95905.19;5046837;27;20412;-72
2022/05/20 11:26:07;;;;;;;1.33;0.40;;;;;;;27.92;15.78;95909.97;5036306;27;20050;-75
2022/05/20 11:29:04;;;;;;;2.15;0.40;;;;;;;27.96;15.94;95897.50;5127834;27;20508;-75
2022/05/20 11:31:45;;;;;;;0.70;0.60;;;;;;;28.01;15.61;95892.00;5037266;27;20868;-73
2022/05/20 11:34:32;;;;;;;1.23;0.50;;;;;;;27.93;15.94;95890.13;5133221;27;20515;-75
2022/05/20 11:37:14;;;;;;;0.77;0.40;;;;;;;28.50;16.32;95888.28;5045694;27;20439;-76
2022/05/20 11:40:18;;;;;;;2.45;0.60;;;;;;;28.65;15.76;95893.16;5108182;27;20325;-76
2022/05/20 11:43:08;;;;;;;1.27;0.43;;;;;;;28.93;15.56;95898.06;5019046;27;20037;-76
2022/05/20 11:45:52;;;;;;;1.58;0.30;;;;;;;29.37;15.84;95885.25;5034588;27;20483;-77
2022/05/20 11:48:37;;;;;;;0.95;0.70;;;;;;;28.93;14.94;95884.66;5034851;27;20037;-76
2022/05/20 11:51:26;;;;;;;0.90;0.45;;;;;;;28.91;15.55;95881.53;5035184;27;20602;-76
2022/05/20 11:53:59;;;;;;;1.73;1.48;;;;;;;28.88;16.09;95874.91;5037520;27;20452;-77
2022/05/20 11:56:41;;;;;;;1.05;0.70;;;;;;;28.93;15.85;95871.25;5034672;27;20169;-77
2022/05/20 11:59:49;;;;;;;1.58;1.17;;;;;;;29.24;17.24;95860.19;5035753;27;20388;-76
2022/05/20 12:02:18;;;;;;;1.20;0.57;;;;;;;29.66;16.00;95859.44;4997739;28;20048;-77
2022/05/20 12:04:48;;;;;;;3.80;0.70;;;;;;;30.26;15.47;95850.03;5024895;27;20117;-76
2022/05/20 12:07:19;;;;;;;3.50;0.50;;;;;;;31.08;14.41;95858.44;5021502;27;20534;-76
2022/05/20 12:09:52;;;;;;;2.60;0.80;;;;;;;31.80;14.31;95854.03;5041582;27;20033;-76
2022/05/20 12:12:33;;;;;;;1.50;0.45;;;;;;;31.86;13.76;95848.41;5040698;27;20355;-76
2022/05/20 12:15:13;;;;;;;0.88;0.35;;;;;;;32.01;14.18;95843.00;5036894;27;20048;-76
2022/05/20 12:17:45;;;;;;;1.52;0.40;;;;;;;32.41;14.13;95854.84;5040303;27;20060;-76
2022/05/20 12:26:11;;;;;;;1.13;0.50;;;;;;;34.21;12.72;95842.56;5038954;27;20523;-76
2022/05/20 12:28:39;;;;;;;0.75;0.32;;;;;;;33.05;12.46;95833.25;5053961;27;20037;-75
2022/05/20 12:31:24;;;;;;;5.95;0.77;;;;;;;33.11;13.58;95831.84;5041844;27;20119;-77
2022/05/20 12:34:10;;;;;;;0.52;0.38;;;;;;;31.47;13.44;95829.19;5022717;27;20152;-76
2022/05/20 12:36:40;;;;;;;0.95;0.32;;;;;;;30.85;14.82;95821.22;5039229;27;20538;-75
2022/05/20 12:39:09;;;;;;;0.70;0.40;;;;;;;30.41;15.00;95823.66;5039818;27;20141;-75
2022/05/20 12:41:35;;;;;;;2.35;0.55;;;;;;;30.97;15.67;95818.56;5038688;27;20048;-75
2022/05/20 12:44:18;;;;;;;0.82;0.50;;;;;;;31.19;14.38;95821.88;5024586;27;20055;-76